createdAt,value
2023-02-19T00:01:19.804Z,2.43
2023-02-19T00:03:52.027Z,2.73
2023-02-19T00:06:18.989Z,2.60
2023-02-19T00:08:45.403Z,3.20
2023-02-19T00:11:13.012Z,2.50
2023-02-19T00:13:41.846Z,2.37
2023-02-19T00:16:09.114Z,2.13
2023-02-19T00:18:35.658Z,2.40
2023-02-19T00:21:02.117Z,2.53
2023-02-19T00:23:28.570Z,3.07
2023-02-19T00:25:55.371Z,2.90
2023-02-19T00:28:21.798Z,2.60
2023-02-19T00:30:48.775Z,2.90
2023-02-19T00:33:15.818Z,2.60
2023-02-19T00:35:42.209Z,2.70
2023-02-19T00:38:08.574Z,2.40
2023-02-19T00:40:35.029Z,2.93
2023-02-19T00:43:01.409Z,3.13
2023-02-19T00:45:28.252Z,3.10
2023-02-19T00:47:54.720Z,3.20
2023-02-19T00:50:21.597Z,2.93
2023-02-19T00:52:47.964Z,3.10
2023-02-19T00:55:14.649Z,3.10
2023-02-19T00:57:41.046Z,3.50
2023-02-19T01:00:07.753Z,4.10
2023-02-19T01:02:34.263Z,3.33
2023-02-19T01:05:01.005Z,4.23
2023-02-19T01:07:27.693Z,4.37
2023-02-19T01:09:54.169Z,4.00
2023-02-19T01:12:20.964Z,4.23
2023-02-19T01:14:47.538Z,4.30
2023-02-19T01:17:14.120Z,3.17
2023-02-19T01:19:40.636Z,3.17
2023-02-19T01:22:07.106Z,3.20
2023-02-19T01:24:33.550Z,3.10
2023-02-19T01:27:00.033Z,3.03
2023-02-19T01:29:26.421Z,3.07
2023-02-19T01:31:52.839Z,2.43
2023-02-19T01:34:19.253Z,3.00
2023-02-19T01:36:45.624Z,3.10
2023-02-19T01:39:12.509Z,3.27
2023-02-19T01:41:40.326Z,3.87
2023-02-19T01:44:08.252Z,3.73
2023-02-19T01:46:36.912Z,3.83
2023-02-19T01:49:12.570Z,3.40
2023-02-19T01:51:41.365Z,3.90
2023-02-19T01:54:09.426Z,4.43
2023-02-19T01:56:38.495Z,4.33
2023-02-19T01:59:06.570Z,3.77
2023-02-19T02:01:35.413Z,4.40
2023-02-19T02:04:02.057Z,3.23
2023-02-19T02:06:30.928Z,4.23
2023-02-19T02:09:16.749Z,2.70
2023-02-19T02:11:48.270Z,2.00
2023-02-19T02:14:15.617Z,2.07
2023-02-19T02:17:02.625Z,2.13
2023-02-19T02:19:48.002Z,1.80
2023-02-19T02:22:36.542Z,1.60
2023-02-19T02:25:03.050Z,1.40
2023-02-19T02:27:48.459Z,1.50
2023-02-19T02:30:26.932Z,1.07
2023-02-19T02:32:56.432Z,0.97
2023-02-19T02:35:25.657Z,1.10
2023-02-19T02:37:53.814Z,1.40
2023-02-19T02:40:20.563Z,1.20
2023-02-19T02:42:47.449Z,1.20
2023-02-19T02:45:35.346Z,1.50
2023-02-19T02:48:12.778Z,1.70
2023-02-19T02:50:45.251Z,1.30
2023-02-19T02:53:33.511Z,2.10
2023-02-19T02:56:01.647Z,1.60
2023-02-19T02:58:29.649Z,1.73
2023-02-19T03:01:18.842Z,1.80
2023-02-19T03:03:47.297Z,2.00
2023-02-19T03:06:15.539Z,1.60
2023-02-19T03:08:45.620Z,2.00
2023-02-19T03:11:31.168Z,1.73
2023-02-19T03:14:19.955Z,2.30
2023-02-19T03:17:06.837Z,1.70
2023-02-19T03:19:35.690Z,2.03
2023-02-19T03:22:09.864Z,2.83
2023-02-19T03:24:59.352Z,2.40
2023-02-19T03:27:28.356Z,2.47
2023-02-19T03:29:57.213Z,2.70
2023-02-19T03:32:26.060Z,2.60
2023-02-19T03:35:05.242Z,2.43
2023-02-19T03:37:38.441Z,2.27
2023-02-19T03:40:05.495Z,2.40
2023-02-19T03:42:45.483Z,2.37
2023-02-19T03:45:23.735Z,2.13
2023-02-19T03:48:07.598Z,1.93
2023-02-19T03:50:44.980Z,2.30
2023-02-19T03:53:30.188Z,1.90
2023-02-19T03:55:56.858Z,2.00
2023-02-19T03:58:26.257Z,2.07
2023-02-19T04:01:10.514Z,1.50
2023-02-19T04:03:41.154Z,1.90
2023-02-19T04:06:10.701Z,1.70
2023-02-19T04:08:38.666Z,1.73
2023-02-19T04:11:06.194Z,1.53
2023-02-19T04:13:36.778Z,1.13
2023-02-19T04:16:06.987Z,1.43
2023-02-19T04:18:36.725Z,1.50
2023-02-19T04:21:03.910Z,1.80
2023-02-19T04:23:32.182Z,1.50
2023-02-19T04:26:00.042Z,1.37
2023-02-19T04:28:27.799Z,1.20
2023-02-19T04:30:54.266Z,1.27
2023-02-19T04:33:21.058Z,1.00
2023-02-19T04:35:47.470Z,1.33
2023-02-19T04:38:14.703Z,1.43
2023-02-19T04:40:41.691Z,1.60
2023-02-19T04:43:08.086Z,1.30
2023-02-19T04:45:34.467Z,1.40
2023-02-19T04:48:01.094Z,1.53
2023-02-19T04:50:27.544Z,1.77
2023-02-19T04:52:54.293Z,1.50
2023-02-19T04:55:20.747Z,1.50
2023-02-19T04:57:47.157Z,1.47
2023-02-19T05:00:13.762Z,1.43
2023-02-19T05:02:40.278Z,1.30
2023-02-19T05:05:06.750Z,1.80
2023-02-19T05:07:33.891Z,1.60
2023-02-19T05:10:00.373Z,1.50
2023-02-19T05:12:26.870Z,1.73
2023-02-19T05:14:53.284Z,1.80
2023-02-19T05:17:19.666Z,1.70
2023-02-19T05:19:46.272Z,2.07
2023-02-19T05:22:12.668Z,2.10
2023-02-19T05:24:39.018Z,2.20
2023-02-19T05:27:05.470Z,1.90
2023-02-19T05:29:31.980Z,2.50
2023-02-19T05:31:58.464Z,1.80
2023-02-19T05:34:25.331Z,2.23
2023-02-19T05:36:51.718Z,1.80
2023-02-19T05:39:18.110Z,2.50
2023-02-19T05:41:44.667Z,2.27
2023-02-19T05:44:11.080Z,1.70
2023-02-19T05:46:37.899Z,2.13
2023-02-19T05:49:04.285Z,2.40
2023-02-19T05:51:30.830Z,1.90
2023-02-19T05:53:57.730Z,2.20
2023-02-19T05:56:37.668Z,2.30
2023-02-19T05:59:07.789Z,2.20
2023-02-19T06:01:35.496Z,1.90
2023-02-19T06:04:01.965Z,2.17
2023-02-19T06:06:28.535Z,2.33
2023-02-19T06:08:55.108Z,2.23
2023-02-19T06:11:21.700Z,2.80
2023-02-19T06:13:50.142Z,2.60
2023-02-19T06:16:17.669Z,2.50
2023-02-19T06:18:44.434Z,2.20
2023-02-19T06:21:12.246Z,1.90
2023-02-19T06:23:38.942Z,2.87
2023-02-19T06:26:12.478Z,2.27
2023-02-19T06:28:39.142Z,2.03
2023-02-19T06:31:06.649Z,2.57
2023-02-19T06:33:33.909Z,2.90
2023-02-19T06:36:01.195Z,2.37
2023-02-19T06:38:28.084Z,1.93
2023-02-19T06:40:54.728Z,2.60
2023-02-19T06:43:21.427Z,2.00
2023-02-19T06:45:47.889Z,2.50
2023-02-19T06:48:14.288Z,2.87
2023-02-19T06:50:40.716Z,2.33
2023-02-19T06:53:08.914Z,2.37
2023-02-19T06:55:36.003Z,2.40
2023-02-19T06:58:02.396Z,2.70
2023-02-19T07:00:28.866Z,2.70
2023-02-19T07:02:57.058Z,2.87
2023-02-19T07:05:23.514Z,2.60
2023-02-19T07:07:49.953Z,2.90
2023-02-19T07:10:16.750Z,3.00
2023-02-19T07:12:43.166Z,2.97
2023-02-19T07:15:10.028Z,2.63
2023-02-19T07:17:36.413Z,2.43
2023-02-19T07:20:02.909Z,2.70
2023-02-19T07:22:29.566Z,3.23
2023-02-19T07:24:56.429Z,2.80
2023-02-19T07:27:22.790Z,2.37
2023-02-19T07:29:49.176Z,2.67
2023-02-19T07:32:15.614Z,3.10
2023-02-19T07:34:41.986Z,3.03
2023-02-19T07:37:08.578Z,3.53
2023-02-19T07:39:34.953Z,3.40
2023-02-19T07:42:01.345Z,3.50
2023-02-19T07:44:27.794Z,3.53
2023-02-19T07:46:54.157Z,3.10
2023-02-19T07:49:20.638Z,3.43
2023-02-19T07:51:47.014Z,3.67
2023-02-19T07:54:13.638Z,3.73
2023-02-19T07:56:40.044Z,3.03
2023-02-19T07:59:06.482Z,3.30
2023-02-19T08:01:51.461Z,3.90
2023-02-19T08:04:17.820Z,3.30
2023-02-19T08:06:44.751Z,3.17
2023-02-19T08:09:11.597Z,3.17
2023-02-19T08:11:57.023Z,2.50
2023-02-19T08:14:27.356Z,2.80
2023-02-19T08:16:54.011Z,3.00
2023-02-19T08:19:21.443Z,2.23
2023-02-19T08:21:47.845Z,2.90
2023-02-19T08:24:14.510Z,3.00
2023-02-19T08:26:40.903Z,2.53
2023-02-19T08:29:07.316Z,2.60
2023-02-19T08:31:34.435Z,2.37
2023-02-19T08:34:00.989Z,3.00
2023-02-19T08:36:27.548Z,2.63
2023-02-19T08:38:54.079Z,3.67
2023-02-19T08:41:20.886Z,3.13
2023-02-19T08:43:47.817Z,3.10
2023-02-19T08:46:14.234Z,3.40
2023-02-19T08:48:40.680Z,3.57
2023-02-19T08:51:08.552Z,3.70
2023-02-19T08:53:35.998Z,3.43
2023-02-19T08:56:09.490Z,3.67
2023-02-19T08:58:37.319Z,3.80
2023-02-19T09:01:07.403Z,4.53
2023-02-19T09:03:33.818Z,3.83
2023-02-19T09:06:00.206Z,3.70
2023-02-19T09:08:26.652Z,3.70
2023-02-19T09:11:04.602Z,3.37
2023-02-19T09:13:31.028Z,3.50
2023-02-19T09:15:57.497Z,3.90
2023-02-19T09:18:24.636Z,3.13
2023-02-19T09:20:51.260Z,3.60
2023-02-19T09:23:17.636Z,3.10
2023-02-19T09:25:44.074Z,2.50
2023-02-19T09:28:10.601Z,3.20
2023-02-19T09:30:37.066Z,2.50
2023-02-19T09:33:05.421Z,2.43
2023-02-19T09:35:31.860Z,2.33
2023-02-19T09:37:59.257Z,2.10
2023-02-19T09:40:25.957Z,3.20
2023-02-19T09:42:52.389Z,2.30
2023-02-19T09:45:21.827Z,2.20
2023-02-19T09:47:48.618Z,1.70
2023-02-19T09:50:17.136Z,2.00
2023-02-19T09:52:51.673Z,1.83
2023-02-19T09:55:38.920Z,2.10
2023-02-19T09:58:17.698Z,2.37
2023-02-19T10:00:46.572Z,2.43
2023-02-19T10:03:16.551Z,1.53
2023-02-19T10:05:43.122Z,2.17
2023-02-19T10:08:13.659Z,1.37
2023-02-19T10:10:41.394Z,1.50
2023-02-19T10:13:17.000Z,1.70
2023-02-19T10:15:51.598Z,2.27
2023-02-19T10:18:28.195Z,1.67
2023-02-19T10:20:55.550Z,1.63
2023-02-19T10:23:22.166Z,1.53
2023-02-19T10:25:54.298Z,1.50
2023-02-19T10:28:22.701Z,1.30
2023-02-19T10:30:52.205Z,2.00
2023-02-19T10:33:19.376Z,1.30
2023-02-19T10:35:59.234Z,1.30
2023-02-19T10:38:28.248Z,1.47
2023-02-19T10:41:15.199Z,1.50
2023-02-19T10:43:43.580Z,1.63
2023-02-19T10:46:17.488Z,1.30
2023-02-19T10:49:04.205Z,1.27
2023-02-19T10:51:40.960Z,1.00
2023-02-19T10:54:15.669Z,1.80
2023-02-19T10:56:42.148Z,1.40
2023-02-19T10:59:14.383Z,1.00
2023-02-19T11:01:53.117Z,1.10
2023-02-19T11:04:20.283Z,1.03
2023-02-19T11:06:47.031Z,1.30
2023-02-19T11:09:27.997Z,1.37
2023-02-19T11:11:54.934Z,1.20
2023-02-19T11:14:24.028Z,1.27
2023-02-19T11:16:56.410Z,1.13
2023-02-19T11:19:24.733Z,1.00
2023-02-19T11:21:51.540Z,1.00
2023-02-19T11:24:39.066Z,1.43
2023-02-19T11:27:07.574Z,1.10
2023-02-19T11:29:36.711Z,1.20
2023-02-19T11:32:22.148Z,1.30
2023-02-19T11:34:48.620Z,1.40
2023-02-19T11:37:19.504Z,1.00
2023-02-19T11:39:47.633Z,1.00
2023-02-19T11:42:16.834Z,1.07
2023-02-19T11:44:52.037Z,1.27
2023-02-19T11:47:30.798Z,1.43
2023-02-19T11:50:02.269Z,1.30
2023-02-19T11:52:31.459Z,1.10
2023-02-19T11:55:12.896Z,1.23
2023-02-19T11:57:44.274Z,0.80
2023-02-19T12:00:24.843Z,0.80
2023-02-19T12:02:59.053Z,0.80
2023-02-19T12:05:36.910Z,1.77
2023-02-19T12:08:31.298Z,0.90
2023-02-19T12:11:16.649Z,0.80
2023-02-19T12:14:03.298Z,0.80
2023-02-19T12:16:35.732Z,0.97
2023-02-19T12:19:05.002Z,1.03
2023-02-19T12:21:37.344Z,0.87
2023-02-19T12:24:12.720Z,0.93
2023-02-19T12:26:39.314Z,1.20
2023-02-19T12:29:24.449Z,1.70
2023-02-19T12:32:13.107Z,1.40
2023-02-19T12:34:51.430Z,1.20
2023-02-19T12:37:28.116Z,0.70
2023-02-19T12:40:17.382Z,1.00
2023-02-19T12:42:59.657Z,1.00
2023-02-19T12:45:46.974Z,1.10
2023-02-19T12:48:27.793Z,0.90
2023-02-19T12:50:58.957Z,1.10
2023-02-19T12:53:32.655Z,1.00
2023-02-19T12:56:00.408Z,1.03
2023-02-19T12:58:35.300Z,1.30
2023-02-19T13:01:01.976Z,0.80
2023-02-19T13:03:32.118Z,0.90
2023-02-19T13:06:09.674Z,1.00
2023-02-19T13:08:45.329Z,1.23
2023-02-19T13:11:27.997Z,0.97
2023-02-19T13:14:06.319Z,0.63
2023-02-19T13:16:34.848Z,0.90
2023-02-19T13:19:03.125Z,0.93
2023-02-19T13:21:53.008Z,0.93
2023-02-19T13:24:32.211Z,1.20
2023-02-19T13:27:04.161Z,1.00
2023-02-19T13:29:36.769Z,0.93
2023-02-19T13:32:20.821Z,0.87
2023-02-19T13:34:47.795Z,1.10
2023-02-19T13:37:15.480Z,1.10
2023-02-19T13:40:03.291Z,0.90
2023-02-19T13:42:34.975Z,0.80
2023-02-19T13:45:02.541Z,1.03
2023-02-19T13:47:47.989Z,1.40
2023-02-19T13:50:33.366Z,0.87
2023-02-19T13:53:00.875Z,0.97
2023-02-19T13:55:54.553Z,0.90
2023-02-19T13:58:33.304Z,0.90
2023-02-19T14:01:01.785Z,1.00
2023-02-19T14:03:29.770Z,0.90
2023-02-19T14:05:57.809Z,0.80
2023-02-19T14:08:44.447Z,1.20
2023-02-19T14:11:14.151Z,0.90
2023-02-19T14:13:49.394Z,1.20
2023-02-19T14:16:28.800Z,0.90
2023-02-19T14:18:56.217Z,0.80
2023-02-19T14:21:26.247Z,0.87
2023-02-19T14:23:54.764Z,0.90
2023-02-19T14:26:21.698Z,0.70
2023-02-19T14:28:49.455Z,0.90
2023-02-19T14:31:17.957Z,0.90
2023-02-19T14:33:52.983Z,0.80
2023-02-19T14:36:28.820Z,1.23
2023-02-19T14:38:57.594Z,1.00
2023-02-19T14:41:24.739Z,1.30
2023-02-19T14:43:52.420Z,0.83
2023-02-19T14:46:33.611Z,0.93
2023-02-19T14:49:15.286Z,1.30
2023-02-19T14:51:44.512Z,1.40
2023-02-19T14:54:15.817Z,1.00
2023-02-19T14:56:45.046Z,1.60
2023-02-19T14:59:11.410Z,1.30
2023-02-19T15:01:38.147Z,1.20
2023-02-19T15:04:05.050Z,1.20
2023-02-19T15:06:33.792Z,0.90
2023-02-19T15:09:03.318Z,1.13
2023-02-19T15:11:32.525Z,1.00
2023-02-19T15:14:00.685Z,1.90
2023-02-19T15:16:27.885Z,1.00
2023-02-19T15:18:55.330Z,1.00
2023-02-19T15:21:24.416Z,1.43
2023-02-19T15:23:53.291Z,1.10
2023-02-19T15:26:24.063Z,1.10
2023-02-19T15:28:57.267Z,0.80
2023-02-19T15:31:23.795Z,1.60
2023-02-19T15:33:51.230Z,0.87
2023-02-19T15:36:22.695Z,1.00
2023-02-19T15:38:54.517Z,1.00
2023-02-19T15:41:23.092Z,1.07
2023-02-19T15:43:53.864Z,1.50
2023-02-19T15:46:21.774Z,1.07
2023-02-19T15:48:48.143Z,1.10
2023-02-19T15:51:17.205Z,0.97
2023-02-19T15:53:47.182Z,1.20
2023-02-19T15:56:46.104Z,1.07
2023-02-19T15:59:16.570Z,0.77
2023-02-19T16:01:43.097Z,1.17
2023-02-19T16:04:12.146Z,1.33
2023-02-19T16:06:52.268Z,1.03
2023-02-19T16:09:23.496Z,0.90
2023-02-19T16:11:53.621Z,0.80
2023-02-19T16:14:30.857Z,1.50
2023-02-19T16:17:09.584Z,1.37
2023-02-19T16:19:56.760Z,1.40
2023-02-19T16:22:27.774Z,1.33
2023-02-19T16:25:16.942Z,1.47
2023-02-19T16:27:43.536Z,1.50
2023-02-19T16:30:16.320Z,1.83
2023-02-19T16:32:45.165Z,1.30
2023-02-19T16:35:31.514Z,1.20
2023-02-19T16:37:59.353Z,1.23
2023-02-19T16:40:35.294Z,1.20
2023-02-19T16:43:04.815Z,1.87
2023-02-19T16:45:31.377Z,2.53
2023-02-19T16:47:57.801Z,2.10
2023-02-19T16:50:25.211Z,2.10
2023-02-19T16:52:54.369Z,2.50
2023-02-19T16:55:21.078Z,2.67
2023-02-19T16:57:47.694Z,2.63
2023-02-19T17:00:21.540Z,2.03
2023-02-19T17:02:48.668Z,2.07
2023-02-19T17:05:15.774Z,2.57
2023-02-19T17:07:42.406Z,2.07
2023-02-19T17:10:11.809Z,3.03
2023-02-19T17:12:38.685Z,3.50
2023-02-19T17:15:05.129Z,2.83
2023-02-19T17:17:31.603Z,1.73
2023-02-19T17:19:58.010Z,1.60
2023-02-19T17:22:25.242Z,1.33
2023-02-19T17:24:51.714Z,1.80
2023-02-19T17:27:18.143Z,2.47
2023-02-19T17:29:44.636Z,1.60
2023-02-19T17:32:11.229Z,1.87
2023-02-19T17:34:37.953Z,2.23
2023-02-19T17:37:04.844Z,2.47
2023-02-19T17:39:31.270Z,2.13
2023-02-19T17:41:58.345Z,2.60
2023-02-19T17:44:24.810Z,3.37
2023-02-19T17:46:51.200Z,3.07
2023-02-19T17:49:17.670Z,3.93
2023-02-19T17:51:44.270Z,3.30
2023-02-19T17:54:10.768Z,2.60
2023-02-19T17:56:38.395Z,2.10
2023-02-19T17:59:04.794Z,3.20
2023-02-19T18:01:31.232Z,4.67
2023-02-19T18:03:57.972Z,3.33
2023-02-19T18:06:25.137Z,3.60
2023-02-19T18:08:52.505Z,3.50
2023-02-19T18:11:19.428Z,3.53
2023-02-19T18:13:46.041Z,3.33
2023-02-19T18:16:15.426Z,3.13
2023-02-19T18:18:42.770Z,3.30
2023-02-19T18:21:10.047Z,3.57
2023-02-19T18:23:36.932Z,3.63
2023-02-19T18:26:06.197Z,3.87
2023-02-19T18:28:33.938Z,2.53
2023-02-19T18:31:00.736Z,3.40
2023-02-19T18:33:27.857Z,3.93
2023-02-19T18:35:54.340Z,3.80
2023-02-19T18:38:21.066Z,4.33
2023-02-19T18:40:47.589Z,4.13
2023-02-19T18:43:14.099Z,4.27
2023-02-19T18:45:40.544Z,4.27
2023-02-19T18:48:07.310Z,4.53
2023-02-19T18:50:34.933Z,3.30
2023-02-19T18:53:01.648Z,3.97
2023-02-19T18:55:28.370Z,4.60
2023-02-19T18:57:55.357Z,4.30
2023-02-19T19:00:23.601Z,4.67
2023-02-19T19:02:51.462Z,5.67
2023-02-19T19:05:21.229Z,4.60
2023-02-19T19:07:47.670Z,5.17
2023-02-19T19:10:14.706Z,5.30
2023-02-19T19:12:41.077Z,5.20
2023-02-19T19:15:07.717Z,4.40
2023-02-19T19:17:34.092Z,4.83
2023-02-19T19:20:00.489Z,4.83
2023-02-19T19:22:26.940Z,6.90
2023-02-19T19:24:53.549Z,5.00
2023-02-19T19:27:20.815Z,4.93
2023-02-19T19:29:48.224Z,6.00
2023-02-19T19:32:15.258Z,6.70
2023-02-19T19:34:43.244Z,3.90
2023-02-19T19:37:09.728Z,4.87
2023-02-19T19:39:36.368Z,4.63
2023-02-19T19:42:02.806Z,5.50
2023-02-19T19:44:29.204Z,4.90
2023-02-19T19:46:56.270Z,4.17
2023-02-19T19:49:22.761Z,3.83
2023-02-19T19:51:49.448Z,3.63
2023-02-19T19:54:16.098Z,3.57
2023-02-19T19:56:43.225Z,4.23
2023-02-19T19:59:10.919Z,4.30
2023-02-19T20:01:37.506Z,3.57
2023-02-19T20:04:04.504Z,3.60
2023-02-19T20:06:31.293Z,3.37
2023-02-19T20:08:57.967Z,3.50
2023-02-19T20:11:24.814Z,4.37
2023-02-19T20:13:51.201Z,5.57
2023-02-19T20:16:24.170Z,6.37
2023-02-19T20:18:50.993Z,6.83
2023-02-19T20:21:17.535Z,4.33
2023-02-19T20:23:43.992Z,3.83
2023-02-19T20:26:10.736Z,3.40
2023-02-19T20:28:37.138Z,3.37
2023-02-19T20:31:03.555Z,3.23
2023-02-19T20:33:30.909Z,2.63
2023-02-19T20:35:57.414Z,2.40
2023-02-19T20:38:23.896Z,2.80
2023-02-19T20:40:50.310Z,3.20
2023-02-19T20:43:16.728Z,3.90
2023-02-19T20:45:45.652Z,3.67
2023-02-19T20:48:14.344Z,3.17
2023-02-19T20:50:40.733Z,2.83
2023-02-19T20:53:07.203Z,2.83
2023-02-19T20:55:33.790Z,2.87
2023-02-19T20:58:00.335Z,3.90
2023-02-19T21:00:26.777Z,3.53
2023-02-19T21:02:53.318Z,3.63
2023-02-19T21:05:19.919Z,3.43
2023-02-19T21:07:46.423Z,3.20
2023-02-19T21:10:13.107Z,3.17
2023-02-19T21:12:39.656Z,3.40
2023-02-19T21:15:06.126Z,3.07
2023-02-19T21:17:32.554Z,2.97
2023-02-19T21:19:58.986Z,2.37
2023-02-19T21:22:25.869Z,3.30
2023-02-19T21:24:53.093Z,3.30
2023-02-19T21:27:20.185Z,4.40
2023-02-19T21:29:46.880Z,3.20
2023-02-19T21:32:13.308Z,3.00
2023-02-19T21:34:40.262Z,3.10
2023-02-19T21:37:06.659Z,2.57
2023-02-19T21:39:34.524Z,3.47
2023-02-19T21:42:01.031Z,2.90
2023-02-19T21:44:27.413Z,2.67
2023-02-19T21:46:53.797Z,2.83
2023-02-19T21:49:20.186Z,3.70
2023-02-19T21:51:48.515Z,2.87
2023-02-19T21:54:16.489Z,2.83
2023-02-19T21:56:42.914Z,3.37
2023-02-19T21:59:09.392Z,2.50
2023-02-19T22:01:39.852Z,2.20
2023-02-19T22:04:07.015Z,2.50
2023-02-19T22:06:34.088Z,2.80
2023-02-19T22:09:00.868Z,2.33
2023-02-19T22:11:27.307Z,2.50
2023-02-19T22:13:53.696Z,2.30
2023-02-19T22:16:20.498Z,2.43
2023-02-19T22:18:50.813Z,2.70
2023-02-19T22:21:17.601Z,2.00
2023-02-19T22:23:47.966Z,2.23
2023-02-19T22:26:18.552Z,2.40
2023-02-19T22:28:45.783Z,2.30
2023-02-19T22:31:12.148Z,2.30
2023-02-19T22:33:38.559Z,1.97
2023-02-19T22:36:05.216Z,2.43
2023-02-19T22:38:31.579Z,2.70
2023-02-19T22:40:57.995Z,3.00
2023-02-19T22:43:24.381Z,2.33
2023-02-19T22:45:50.832Z,3.00
2023-02-19T22:48:29.444Z,2.70
2023-02-19T22:50:58.669Z,3.00
2023-02-19T22:53:25.254Z,2.90
2023-02-19T22:55:51.670Z,2.60
2023-02-19T22:58:18.043Z,2.70
2023-02-19T23:00:44.674Z,2.00
2023-02-19T23:03:11.111Z,2.67
2023-02-19T23:05:37.495Z,2.83
2023-02-19T23:08:04.371Z,2.63
2023-02-19T23:10:30.748Z,2.33
2023-02-19T23:12:57.143Z,2.70
2023-02-19T23:15:23.510Z,2.80
2023-02-19T23:17:50.209Z,2.60
2023-02-19T23:20:16.658Z,2.40
2023-02-19T23:22:43.593Z,2.47
2023-02-19T23:25:10.013Z,2.63
2023-02-19T23:27:36.427Z,3.00
2023-02-19T23:30:02.822Z,2.03
2023-02-19T23:32:29.858Z,2.50
2023-02-19T23:34:56.227Z,2.67
2023-02-19T23:37:22.631Z,2.43
2023-02-19T23:39:49.021Z,2.10
2023-02-19T23:42:16.622Z,2.33
2023-02-19T23:44:45.662Z,2.50
2023-02-19T23:47:12.260Z,2.07
2023-02-19T23:49:38.715Z,2.20
2023-02-19T23:52:05.136Z,2.60
2023-02-19T23:54:31.622Z,2.90
2023-02-19T23:56:58.280Z,2.20
2023-02-19T23:59:24.646Z,2.53
